createdAt,value
2022-12-27T00:01:54.795Z,76.98
2022-12-27T00:04:21.480Z,77.03
2022-12-27T00:06:48.141Z,77.26
2022-12-27T00:09:14.802Z,77.42
2022-12-27T00:11:41.422Z,77.69
2022-12-27T00:14:08.267Z,77.36
2022-12-27T00:16:35.167Z,78.09
2022-12-27T00:19:02.512Z,78.73
2022-12-27T00:21:29.176Z,78.72
2022-12-27T00:23:57.653Z,78.96
2022-12-27T00:26:30.173Z,79.84
2022-12-27T00:28:57.794Z,79.86
2022-12-27T00:31:26.591Z,80.81
2022-12-27T00:33:56.009Z,81.18
2022-12-27T00:36:25.501Z,80.83
2022-12-27T00:38:53.368Z,80.59
2022-12-27T00:41:20.719Z,79.64
2022-12-27T00:43:48.010Z,79.85
2022-12-27T00:46:15.527Z,79.35
2022-12-27T00:48:42.540Z,79.50
2022-12-27T00:51:22.002Z,79.27
2022-12-27T00:53:49.320Z,79.08
2022-12-27T00:56:18.697Z,78.75
2022-12-27T00:58:45.290Z,78.50
2022-12-27T01:01:15.680Z,78.76
2022-12-27T01:03:42.437Z,78.72
2022-12-27T01:06:16.304Z,79.23
2022-12-27T01:08:43.280Z,79.48
2022-12-27T01:11:11.202Z,79.32
2022-12-27T01:13:38.960Z,78.66
2022-12-27T01:16:14.248Z,78.69
2022-12-27T01:18:40.899Z,78.73
2022-12-27T01:21:09.206Z,78.89
2022-12-27T01:23:36.858Z,78.23
2022-12-27T01:26:07.594Z,77.96
2022-12-27T01:28:35.044Z,78.91
2022-12-27T01:31:12.297Z,79.67
2022-12-27T01:33:39.333Z,79.75
2022-12-27T01:36:13.818Z,79.08
2022-12-27T01:38:42.951Z,78.31
2022-12-27T01:41:40.214Z,77.51
2022-12-27T01:44:34.792Z,77.56
2022-12-27T01:47:03.210Z,77.18
2022-12-27T01:49:30.135Z,77.27
2022-12-27T01:51:56.877Z,77.26
2022-12-27T01:54:24.090Z,78.67
2022-12-27T01:56:50.808Z,78.10
2022-12-27T01:59:17.676Z,78.58
2022-12-27T02:01:47.901Z,78.68
2022-12-27T02:04:19.027Z,78.82
2022-12-27T02:06:47.087Z,79.39
2022-12-27T02:09:33.021Z,80.20
2022-12-27T02:12:02.059Z,78.69
2022-12-27T02:14:32.537Z,78.31
2022-12-27T02:17:02.585Z,78.15
2022-12-27T02:19:41.406Z,79.54
2022-12-27T02:23:08.077Z,79.24
2022-12-27T02:25:59.702Z,79.37
2022-12-27T02:28:47.426Z,79.79
2022-12-27T02:31:24.952Z,80.02
2022-12-27T02:33:53.271Z,79.41
2022-12-27T02:36:27.408Z,78.97
2022-12-27T02:38:58.930Z,79.51
2022-12-27T02:41:46.274Z,79.62
2022-12-27T02:44:35.571Z,79.02
2022-12-27T02:47:21.176Z,78.80
2022-12-27T02:50:06.494Z,78.40
2022-12-27T02:52:57.704Z,79.24
2022-12-27T02:55:43.137Z,79.05
2022-12-27T02:58:25.103Z,78.93
2022-12-27T03:01:47.286Z,78.86
2022-12-27T03:04:38.039Z,79.11
2022-12-27T03:07:32.867Z,79.63
2022-12-27T03:10:33.048Z,79.67
2022-12-27T03:14:03.295Z,79.69
2022-12-27T03:16:37.990Z,79.29
2022-12-27T03:19:40.809Z,79.45
2022-12-27T03:22:28.174Z,79.06
2022-12-27T03:25:15.639Z,79.72
2022-12-27T03:27:44.427Z,79.68
2022-12-27T03:30:31.038Z,79.24
2022-12-27T03:33:12.972Z,79.25
2022-12-27T03:36:27.470Z,79.53
2022-12-27T03:39:15.379Z,79.53
2022-12-27T03:42:12.355Z,79.94
2022-12-27T03:44:40.124Z,79.37
2022-12-27T03:47:22.764Z,80.04
2022-12-27T03:50:03.496Z,78.49
2022-12-27T03:53:04.699Z,78.64
2022-12-27T03:55:33.477Z,79.58
2022-12-27T03:58:00.584Z,80.07
2022-12-27T04:00:27.402Z,79.85
2022-12-27T04:02:54.220Z,79.98
2022-12-27T04:05:20.990Z,78.82
2022-12-27T04:08:06.405Z,79.76
2022-12-27T04:10:51.700Z,79.94
2022-12-27T04:13:37.040Z,79.94
2022-12-27T04:16:22.308Z,80.25
2022-12-27T04:19:07.480Z,79.55
2022-12-27T04:21:52.527Z,79.11
2022-12-27T04:24:37.993Z,79.13
2022-12-27T04:27:23.384Z,79.00
2022-12-27T04:30:08.225Z,77.07
2022-12-27T04:32:53.441Z,76.69
2022-12-27T04:35:20.045Z,75.78
2022-12-27T04:37:46.624Z,76.18
2022-12-27T04:40:31.481Z,76.69
2022-12-27T04:43:16.278Z,76.53
2022-12-27T04:46:01.867Z,76.76
2022-12-27T04:48:48.292Z,76.39
2022-12-27T04:51:33.835Z,76.88
2022-12-27T04:54:19.041Z,76.66
2022-12-27T04:56:45.681Z,76.53
2022-12-27T04:59:30.567Z,76.82
2022-12-27T05:02:03.499Z,78.44
2022-12-27T05:04:35.473Z,78.40
2022-12-27T05:07:25.317Z,78.01
2022-12-27T05:10:10.699Z,77.35
2022-12-27T05:12:56.011Z,77.77
2022-12-27T05:15:22.651Z,79.31
2022-12-27T05:17:49.282Z,79.14
2022-12-27T05:20:16.099Z,79.46
2022-12-27T05:23:00.913Z,77.65
2022-12-27T05:25:38.391Z,77.32
2022-12-27T05:28:07.072Z,77.00
2022-12-27T05:30:35.394Z,77.47
2022-12-27T05:33:02.695Z,77.84
2022-12-27T05:35:29.452Z,77.58
2022-12-27T05:37:56.093Z,78.24
2022-12-27T05:40:24.065Z,78.45
2022-12-27T05:42:51.103Z,77.76
2022-12-27T05:45:18.270Z,77.81
2022-12-27T05:47:45.029Z,77.45
2022-12-27T05:50:12.088Z,76.65
2022-12-27T05:52:41.143Z,77.11
2022-12-27T05:55:09.127Z,76.79
2022-12-27T05:57:36.138Z,75.95
2022-12-27T06:00:06.335Z,75.94
2022-12-27T06:02:33.125Z,76.35
2022-12-27T06:04:59.873Z,75.68
2022-12-27T06:07:26.468Z,75.24
2022-12-27T06:09:54.241Z,74.89
2022-12-27T06:12:20.875Z,74.97
2022-12-27T06:14:47.521Z,75.38
2022-12-27T06:17:14.177Z,75.36
2022-12-27T06:19:40.839Z,74.61
2022-12-27T06:22:07.429Z,75.12
2022-12-27T06:24:34.052Z,74.56
2022-12-27T06:27:00.697Z,75.06
2022-12-27T06:29:27.292Z,74.96
2022-12-27T06:31:53.912Z,74.34
2022-12-27T06:34:20.543Z,73.72
2022-12-27T06:36:50.886Z,74.16
2022-12-27T06:39:19.093Z,73.60
2022-12-27T06:41:46.191Z,73.12
2022-12-27T06:44:12.786Z,73.95
2022-12-27T06:46:39.415Z,73.42
2022-12-27T06:49:06.077Z,73.58
2022-12-27T06:51:34.276Z,73.43
2022-12-27T06:54:00.927Z,72.42
2022-12-27T06:56:27.624Z,72.49
2022-12-27T06:58:54.680Z,72.83
2022-12-27T07:01:24.342Z,72.37
2022-12-27T07:03:56.924Z,72.05
2022-12-27T07:06:24.752Z,72.47
2022-12-27T07:08:51.760Z,72.62
2022-12-27T07:11:19.635Z,72.16
2022-12-27T07:13:49.277Z,72.19
2022-12-27T07:16:20.094Z,72.09
2022-12-27T07:18:49.818Z,72.19
2022-12-27T07:21:19.939Z,72.02
2022-12-27T07:23:47.011Z,72.05
2022-12-27T07:26:19.714Z,71.71
2022-12-27T07:28:47.161Z,70.77
2022-12-27T07:31:19.250Z,70.79
2022-12-27T07:33:46.928Z,70.38
2022-12-27T07:36:18.768Z,70.03
2022-12-27T07:38:45.859Z,69.96
2022-12-27T07:41:13.911Z,69.91
2022-12-27T07:43:40.850Z,69.84
2022-12-27T07:46:10.660Z,70.43
2022-12-27T07:48:37.803Z,70.47
2022-12-27T07:51:05.245Z,70.33
2022-12-27T07:53:32.000Z,70.42
2022-12-27T07:55:58.887Z,69.63
2022-12-27T07:58:25.774Z,69.82
2022-12-27T08:00:53.015Z,69.44
2022-12-27T08:03:20.398Z,69.78
2022-12-27T08:05:53.126Z,70.08
2022-12-27T08:08:23.535Z,70.14
2022-12-27T08:10:50.374Z,70.19
2022-12-27T08:13:16.986Z,70.07
2022-12-27T08:15:44.335Z,69.88
2022-12-27T08:18:11.113Z,70.50
2022-12-27T08:20:37.737Z,71.16
2022-12-27T08:23:04.770Z,70.14
2022-12-27T08:25:31.377Z,69.86
2022-12-27T08:28:10.452Z,70.50
2022-12-27T08:30:38.261Z,70.40
2022-12-27T08:33:04.978Z,70.07
2022-12-27T08:38:18.669Z,69.73
2022-12-27T08:40:46.260Z,69.60
2022-12-27T08:43:14.288Z,69.00
2022-12-27T08:45:41.007Z,69.07
2022-12-27T08:48:08.050Z,69.11
2022-12-27T08:50:34.806Z,68.73
2022-12-27T08:53:03.711Z,68.56
2022-12-27T08:55:30.691Z,68.55
2022-12-27T08:58:13.809Z,69.84
2022-12-27T09:00:42.546Z,69.52
2022-12-27T09:03:09.945Z,69.80
2022-12-27T09:05:41.479Z,70.00
2022-12-27T09:08:08.637Z,70.61
2022-12-27T09:10:35.288Z,71.64
2022-12-27T09:13:01.900Z,71.95
2022-12-27T09:15:28.561Z,72.22
2022-12-27T09:17:55.165Z,70.98
2022-12-27T09:20:21.773Z,70.94
2022-12-27T09:22:48.433Z,68.81
2022-12-27T09:25:15.166Z,67.88
2022-12-27T09:27:41.850Z,67.57
2022-12-27T09:30:08.999Z,64.28
2022-12-27T09:32:35.690Z,66.54
2022-12-27T09:35:03.611Z,68.31
2022-12-27T09:37:31.797Z,66.20
2022-12-27T09:39:58.432Z,66.82
2022-12-27T09:43:07.588Z,67.53
2022-12-27T09:45:38.122Z,65.94
2022-12-27T09:48:10.307Z,66.37
2022-12-27T09:50:47.570Z,64.27
2022-12-27T09:53:24.855Z,63.33
2022-12-27T09:55:58.063Z,61.11
2022-12-27T09:58:43.144Z,59.72
2022-12-27T10:01:21.669Z,58.95
2022-12-27T10:03:49.280Z,55.70
2022-12-27T10:06:27.692Z,55.89
2022-12-27T10:09:21.943Z,58.51
2022-12-27T10:12:18.909Z,55.85
2022-12-27T10:15:07.888Z,54.18
2022-12-27T10:17:53.424Z,53.89
2022-12-27T10:20:59.549Z,56.30
2022-12-27T10:23:30.203Z,53.37
2022-12-27T10:26:04.222Z,52.16
2022-12-27T10:28:43.222Z,54.36
2022-12-27T10:31:18.603Z,51.89
2022-12-27T10:33:47.881Z,52.65
2022-12-27T10:36:19.375Z,51.25
2022-12-27T10:38:45.983Z,51.50
2022-12-27T10:41:40.607Z,50.63
2022-12-27T10:44:11.926Z,50.70
2022-12-27T10:46:41.271Z,49.16
2022-12-27T10:49:22.488Z,46.98
2022-12-27T10:51:51.334Z,47.46
2022-12-27T10:54:24.036Z,50.40
2022-12-27T10:56:51.111Z,46.82
2022-12-27T10:59:35.768Z,47.86
2022-12-27T11:02:02.832Z,49.72
2022-12-27T11:04:31.132Z,45.84
2022-12-27T11:06:59.935Z,48.23
2022-12-27T11:09:36.799Z,43.66
2022-12-27T11:12:28.829Z,43.98
2022-12-27T11:15:01.485Z,43.15
2022-12-27T11:18:09.340Z,43.27
2022-12-27T11:20:44.838Z,43.60
2022-12-27T11:23:18.527Z,45.27
2022-12-27T11:25:56.999Z,44.57
2022-12-27T11:28:42.980Z,46.94
2022-12-27T11:31:18.871Z,48.09
2022-12-27T11:33:49.033Z,47.07
2022-12-27T11:36:25.381Z,46.94
2022-12-27T11:38:52.050Z,45.16
2022-12-27T11:41:46.777Z,46.72
2022-12-27T11:44:24.557Z,48.35
2022-12-27T11:46:59.538Z,47.34
2022-12-27T11:49:37.038Z,45.62
2022-12-27T11:52:12.765Z,46.70
2022-12-27T11:54:45.309Z,46.57
2022-12-27T11:57:15.266Z,45.69
2022-12-27T12:00:27.296Z,43.82
2022-12-27T12:02:59.906Z,46.07
2022-12-27T12:05:40.308Z,45.71
2022-12-27T12:08:23.037Z,44.20
2022-12-27T12:10:55.482Z,42.96
2022-12-27T12:13:43.499Z,42.72
2022-12-27T12:16:51.874Z,43.89
2022-12-27T12:19:55.699Z,42.21
2022-12-27T12:22:34.446Z,42.81
2022-12-27T12:25:28.471Z,41.55
2022-12-27T12:28:56.382Z,41.28
2022-12-27T12:31:44.344Z,40.62
2022-12-27T12:34:59.002Z,42.67
2022-12-27T12:37:59.418Z,38.01
2022-12-27T12:40:38.068Z,40.35
2022-12-27T12:43:28.109Z,40.22
2022-12-27T12:46:16.607Z,40.06
2022-12-27T12:49:10.949Z,38.75
2022-12-27T12:51:43.498Z,38.32
2022-12-27T12:54:36.507Z,38.62
2022-12-27T12:57:20.596Z,36.62
2022-12-27T13:00:08.919Z,39.09
2022-12-27T13:02:35.711Z,39.01
2022-12-27T13:05:31.689Z,37.64
2022-12-27T13:08:22.293Z,37.22
2022-12-27T13:11:02.104Z,38.54
2022-12-27T13:13:34.489Z,36.89
2022-12-27T13:16:32.691Z,36.95
2022-12-27T13:19:30.351Z,38.61
2022-12-27T13:22:18.732Z,38.30
2022-12-27T13:25:10.991Z,39.68
2022-12-27T13:27:55.951Z,39.67
2022-12-27T13:30:25.168Z,40.00
2022-12-27T13:33:14.940Z,41.37
2022-12-27T13:36:07.101Z,41.76
2022-12-27T13:39:01.609Z,41.07
2022-12-27T13:41:34.215Z,40.01
2022-12-27T13:44:11.939Z,40.57
2022-12-27T13:47:19.015Z,40.92
2022-12-27T13:50:17.927Z,42.69
2022-12-27T13:53:03.836Z,42.20
2022-12-27T13:55:56.077Z,42.03
2022-12-27T13:58:31.524Z,42.43
2022-12-27T14:01:24.211Z,42.74
2022-12-27T14:04:38.742Z,43.44
2022-12-27T14:07:25.173Z,43.14
2022-12-27T14:10:04.372Z,43.65
2022-12-27T14:12:57.478Z,43.49
2022-12-27T14:15:29.029Z,42.83
2022-12-27T14:18:07.492Z,44.29
2022-12-27T14:20:49.333Z,44.64
2022-12-27T14:23:43.452Z,44.76
2022-12-27T14:26:47.704Z,44.37
2022-12-27T14:29:26.414Z,44.36
2022-12-27T14:32:13.573Z,45.18
2022-12-27T14:35:01.443Z,44.73
2022-12-27T14:38:03.286Z,45.48
2022-12-27T14:40:54.759Z,45.38
2022-12-27T14:43:58.469Z,45.15
2022-12-27T14:46:43.654Z,45.06
2022-12-27T14:49:38.280Z,45.89
2022-12-27T14:52:42.607Z,45.52
2022-12-27T14:55:40.844Z,45.28
2022-12-27T14:58:17.487Z,44.80
2022-12-27T15:00:58.129Z,45.35
2022-12-27T15:03:43.378Z,44.55
2022-12-27T15:06:40.085Z,45.38
2022-12-27T15:09:35.751Z,45.29
2022-12-27T15:12:23.955Z,45.53
2022-12-27T15:15:08.938Z,45.68
2022-12-27T15:17:48.241Z,46.13
2022-12-27T15:20:37.797Z,45.52
2022-12-27T15:23:22.644Z,46.86
2022-12-27T15:26:06.780Z,46.97
2022-12-27T15:28:48.383Z,46.80
2022-12-27T15:31:56.671Z,46.19
2022-12-27T15:34:30.561Z,46.47
2022-12-27T15:36:57.481Z,46.21
2022-12-27T15:39:32.987Z,46.68
2022-12-27T15:42:08.807Z,46.16
2022-12-27T15:45:12.676Z,47.32
2022-12-27T15:48:00.990Z,46.69
2022-12-27T15:50:42.497Z,46.98
2022-12-27T15:54:01.793Z,48.10
2022-12-27T15:56:52.516Z,48.26
2022-12-27T15:59:34.251Z,47.65
2022-12-27T16:02:36.679Z,47.86
2022-12-27T16:05:25.776Z,48.10
2022-12-27T16:08:12.432Z,47.51
2022-12-27T16:10:42.037Z,48.51
2022-12-27T16:13:11.609Z,48.83
2022-12-27T16:15:47.774Z,48.22
2022-12-27T16:18:23.729Z,48.14
2022-12-27T16:21:19.173Z,49.87
2022-12-27T16:23:45.714Z,51.84
2022-12-27T16:26:26.302Z,51.28
2022-12-27T16:29:14.263Z,50.56
2022-12-27T16:31:50.595Z,49.54
2022-12-27T16:34:30.234Z,49.09
2022-12-27T16:37:00.770Z,49.03
2022-12-27T16:39:39.118Z,49.29
2022-12-27T16:42:08.299Z,48.90
2022-12-27T16:44:51.069Z,49.41
2022-12-27T16:47:29.761Z,49.71
2022-12-27T16:50:14.548Z,50.45
2022-12-27T16:52:53.988Z,50.67
2022-12-27T16:55:42.307Z,50.92
2022-12-27T16:58:18.045Z,50.44
2022-12-27T17:00:51.877Z,50.68
2022-12-27T17:03:21.019Z,50.19
2022-12-27T17:06:21.578Z,49.58
2022-12-27T17:08:36.528Z,51.01
2022-12-27T17:11:25.386Z,51.28
2022-12-27T17:14:04.182Z,51.54
2022-12-27T17:16:45.904Z,52.74
2022-12-27T17:19:37.299Z,52.42
2022-12-27T17:22:08.042Z,52.51
2022-12-27T17:24:34.964Z,51.73
2022-12-27T17:27:17.041Z,51.54
2022-12-27T17:30:14.510Z,52.34
2022-12-27T17:33:19.456Z,52.26
2022-12-27T17:35:58.245Z,52.81
2022-12-27T17:38:57.166Z,52.44
2022-12-27T17:42:02.747Z,53.13
2022-12-27T17:45:13.862Z,52.90
2022-12-27T17:47:48.409Z,52.53
2022-12-27T17:50:20.035Z,52.93
2022-12-27T17:53:24.928Z,52.89
2022-12-27T17:56:28.716Z,52.73
2022-12-27T17:59:08.363Z,52.39
2022-12-27T18:01:40.733Z,51.91
2022-12-27T18:04:07.960Z,52.67
2022-12-27T18:06:37.152Z,53.58
2022-12-27T18:09:04.594Z,54.92
2022-12-27T18:11:34.869Z,54.56
2022-12-27T18:14:02.041Z,55.39
2022-12-27T18:16:47.832Z,58.02
2022-12-27T18:19:19.728Z,57.95
2022-12-27T18:21:57.724Z,56.56
2022-12-27T18:24:33.007Z,58.41
2022-12-27T18:27:01.751Z,57.58
2022-12-27T18:29:28.567Z,55.93
2022-12-27T18:32:00.967Z,55.70
2022-12-27T18:34:46.457Z,55.52
2022-12-27T18:37:18.889Z,55.22
2022-12-27T18:39:54.115Z,55.84
2022-12-27T18:42:31.719Z,58.04
2022-12-27T18:45:15.449Z,56.68
2022-12-27T18:47:47.235Z,57.70
2022-12-27T18:50:19.321Z,57.61
2022-12-27T18:52:52.968Z,59.24
2022-12-27T18:55:27.939Z,59.92
2022-12-27T18:58:06.688Z,59.08
2022-12-27T19:00:47.676Z,57.71
2022-12-27T19:03:17.183Z,57.25
2022-12-27T19:06:02.658Z,57.43
2022-12-27T19:08:34.678Z,56.89
2022-12-27T19:11:02.219Z,56.49
2022-12-27T19:13:35.678Z,56.36
2022-12-27T19:16:02.386Z,56.18
2022-12-27T19:18:36.134Z,56.36
2022-12-27T19:21:06.790Z,56.09
2022-12-27T19:23:36.303Z,56.25
2022-12-27T19:26:05.928Z,58.06
2022-12-27T19:28:33.571Z,58.43
2022-12-27T19:31:21.920Z,58.61
2022-12-27T19:33:53.909Z,57.25
2022-12-27T19:36:26.926Z,56.79
2022-12-27T19:38:53.910Z,56.51
2022-12-27T19:41:20.603Z,56.40
2022-12-27T19:43:47.516Z,56.31
2022-12-27T19:46:14.784Z,56.48
2022-12-27T19:48:41.773Z,56.73
2022-12-27T19:51:15.967Z,56.36
2022-12-27T19:53:44.793Z,57.48
2022-12-27T19:56:12.048Z,57.30
2022-12-27T19:58:39.076Z,56.82
2022-12-27T20:01:05.732Z,56.69
2022-12-27T20:03:32.659Z,56.65
2022-12-27T20:06:14.360Z,57.29
2022-12-27T20:08:49.847Z,57.15
2022-12-27T20:11:22.646Z,56.57
2022-12-27T20:13:50.060Z,57.05
2022-12-27T20:16:18.717Z,59.77
2022-12-27T20:18:46.305Z,59.37
2022-12-27T20:21:20.498Z,59.79
2022-12-27T20:23:48.105Z,60.19
2022-12-27T20:26:19.453Z,58.95
2022-12-27T20:28:46.437Z,57.96
2022-12-27T20:31:15.221Z,57.64
2022-12-27T20:33:42.453Z,57.72
2022-12-27T20:36:09.923Z,58.12
2022-12-27T20:38:39.283Z,57.72
2022-12-27T20:41:17.752Z,57.97
2022-12-27T20:43:44.902Z,57.82
2022-12-27T20:46:14.232Z,57.50
2022-12-27T20:48:43.553Z,57.79
2022-12-27T20:51:12.913Z,59.41
2022-12-27T20:53:39.534Z,60.39
2022-12-27T20:56:09.019Z,58.95
2022-12-27T20:58:35.954Z,59.52
2022-12-27T21:01:17.011Z,59.80
2022-12-27T21:03:44.733Z,58.83
2022-12-27T21:06:13.110Z,58.04
2022-12-27T21:08:46.460Z,57.69
2022-12-27T21:11:23.368Z,57.80
2022-12-27T21:13:50.513Z,57.39
2022-12-27T21:16:25.438Z,59.12
2022-12-27T21:18:52.520Z,59.01
2022-12-27T21:21:22.005Z,59.60
2022-12-27T21:23:48.851Z,59.07
2022-12-27T21:26:24.899Z,58.22
2022-12-27T21:28:51.896Z,57.78
2022-12-27T21:31:18.988Z,58.50
2022-12-27T21:33:46.063Z,59.30
2022-12-27T21:36:15.384Z,58.45
2022-12-27T21:38:42.388Z,60.53
2022-12-27T21:41:21.021Z,60.40
2022-12-27T21:43:49.198Z,61.54
2022-12-27T21:46:25.793Z,60.56
2022-12-27T21:49:03.982Z,60.15
2022-12-27T21:51:31.848Z,60.07
2022-12-27T21:53:58.664Z,59.69
2022-12-27T21:56:26.062Z,59.88
2022-12-27T21:58:55.430Z,61.20
2022-12-27T22:01:25.161Z,60.24
2022-12-27T22:03:53.230Z,60.05
2022-12-27T22:06:24.697Z,60.45
2022-12-27T22:08:54.708Z,59.70
2022-12-27T22:11:22.649Z,59.85
2022-12-27T22:13:49.520Z,59.60
2022-12-27T22:16:37.988Z,59.70
2022-12-27T22:19:09.905Z,60.06
2022-12-27T22:21:38.434Z,60.44
2022-12-27T22:24:05.856Z,59.90
2022-12-27T22:26:37.215Z,61.14
2022-12-27T22:29:06.710Z,60.68
2022-12-27T22:31:36.688Z,61.36
2022-12-27T22:34:05.005Z,60.13
2022-12-27T22:36:31.957Z,60.34
2022-12-27T22:38:59.803Z,59.65
2022-12-27T22:41:29.601Z,61.14
2022-12-27T22:44:01.885Z,61.20
2022-12-27T22:46:51.244Z,60.48
2022-12-27T22:49:17.225Z,60.46
2022-12-27T22:51:43.857Z,60.15
2022-12-27T22:54:10.506Z,61.15
2022-12-27T22:56:39.989Z,60.18
2022-12-27T22:59:11.506Z,60.41
2022-12-27T23:01:39.108Z,59.85
2022-12-27T23:04:08.445Z,59.71
2022-12-27T23:06:36.038Z,59.07
2022-12-27T23:09:04.278Z,59.58
2022-12-27T23:11:33.571Z,59.72
2022-12-27T23:14:06.704Z,59.41
2022-12-27T23:16:37.791Z,59.07
2022-12-27T23:19:04.830Z,58.77
2022-12-27T23:21:31.477Z,58.87
2022-12-27T23:23:58.221Z,60.19
2022-12-27T23:26:24.861Z,59.50
2022-12-27T23:28:52.842Z,59.15
2022-12-27T23:31:21.770Z,58.74
2022-12-27T23:33:48.831Z,59.04
2022-12-27T23:36:15.615Z,59.39
2022-12-27T23:38:43.122Z,59.96
2022-12-27T23:41:14.761Z,60.35
2022-12-27T23:43:56.979Z,59.99
2022-12-27T23:46:31.846Z,59.70
2022-12-27T23:49:00.976Z,59.51
2022-12-27T23:51:29.375Z,59.67
2022-12-27T23:53:56.454Z,61.17
2022-12-27T23:56:28.811Z,62.07
2022-12-27T23:58:57.495Z,60.78
